createdAt,value
2023-03-06T00:00:31.834Z,5.60
2023-03-06T00:02:58.710Z,6.25
2023-03-06T00:05:25.827Z,8.38
2023-03-06T00:07:52.299Z,5.22
2023-03-06T00:10:22.527Z,6.53
2023-03-06T00:12:51.459Z,6.35
2023-03-06T00:15:17.959Z,5.88
2023-03-06T00:17:44.421Z,8.70
2023-03-06T00:20:11.870Z,5.25
2023-03-06T00:22:38.805Z,5.18
2023-03-06T00:25:06.398Z,5.97
2023-03-06T00:27:33.094Z,5.93
2023-03-06T00:30:00.926Z,7.38
2023-03-06T00:32:28.220Z,6.28
2023-03-06T00:34:56.188Z,5.82
2023-03-06T00:37:24.415Z,6.07
2023-03-06T00:39:51.402Z,5.50
2023-03-06T00:42:19.196Z,4.60
2023-03-06T00:44:45.937Z,6.20
2023-03-06T00:47:12.777Z,7.18
2023-03-06T00:49:39.329Z,7.93
2023-03-06T00:52:05.786Z,7.03
2023-03-06T00:54:32.141Z,7.85
2023-03-06T00:56:58.439Z,9.30
2023-03-06T00:59:24.787Z,5.22
2023-03-06T01:01:51.091Z,7.38
2023-03-06T01:04:17.620Z,6.95
2023-03-06T01:07:02.410Z,5.93
2023-03-06T01:09:29.213Z,6.45
2023-03-06T01:11:56.148Z,7.20
2023-03-06T01:14:22.487Z,8.05
2023-03-06T01:16:48.790Z,6.32
2023-03-06T01:19:15.606Z,5.38
2023-03-06T01:21:41.904Z,8.02
2023-03-06T01:24:08.413Z,5.55
2023-03-06T01:26:34.805Z,5.65
2023-03-06T01:29:02.048Z,7.13
2023-03-06T01:31:28.502Z,6.38
2023-03-06T01:33:55.159Z,6.20
2023-03-06T01:36:21.541Z,6.75
2023-03-06T01:38:47.871Z,5.80
2023-03-06T01:41:15.800Z,6.60
2023-03-06T01:43:45.316Z,7.15
2023-03-06T01:46:26.641Z,8.02
2023-03-06T01:49:16.506Z,7.03
2023-03-06T01:51:53.470Z,6.82
2023-03-06T01:54:26.707Z,6.18
2023-03-06T01:56:59.193Z,6.25
2023-03-06T01:59:26.897Z,8.77
2023-03-06T02:01:55.209Z,6.82
2023-03-06T02:04:21.792Z,6.22
2023-03-06T02:06:48.335Z,4.90
2023-03-06T02:09:15.140Z,5.82
2023-03-06T02:11:46.086Z,5.78
2023-03-06T02:14:16.062Z,5.63
2023-03-06T02:16:43.555Z,4.80
2023-03-06T02:19:30.034Z,5.15
2023-03-06T02:21:56.490Z,5.63
2023-03-06T02:24:36.888Z,5.82
2023-03-06T02:27:05.305Z,6.38
2023-03-06T02:29:31.755Z,6.07
2023-03-06T02:31:58.090Z,5.30
2023-03-06T02:34:24.356Z,6.07
2023-03-06T02:36:58.782Z,6.65
2023-03-06T02:39:28.032Z,8.20
2023-03-06T02:41:54.755Z,5.68
2023-03-06T02:44:21.801Z,6.20
2023-03-06T02:46:48.081Z,7.13
2023-03-06T02:49:14.382Z,5.18
2023-03-06T02:51:40.754Z,7.63
2023-03-06T02:54:07.094Z,5.35
2023-03-06T02:56:33.480Z,6.78
2023-03-06T02:58:59.837Z,6.78
2023-03-06T03:01:26.169Z,6.20
2023-03-06T03:03:52.595Z,6.32
2023-03-06T03:06:19.053Z,6.00
2023-03-06T03:08:45.493Z,5.88
2023-03-06T03:11:12.386Z,5.32
2023-03-06T03:13:38.926Z,4.85
2023-03-06T03:16:10.873Z,6.57
2023-03-06T03:18:37.249Z,8.40
2023-03-06T03:21:07.728Z,6.50
2023-03-06T03:23:34.038Z,6.88
2023-03-06T03:26:11.791Z,7.63
2023-03-06T03:28:38.135Z,6.63
2023-03-06T03:31:06.604Z,11.10
2023-03-06T03:33:33.466Z,6.30
2023-03-06T03:36:01.901Z,7.50
2023-03-06T03:38:29.135Z,7.28
2023-03-06T03:40:55.568Z,8.70
2023-03-06T03:43:21.912Z,7.50
2023-03-06T03:45:48.344Z,7.38
2023-03-06T03:48:14.751Z,6.30
2023-03-06T03:50:41.966Z,6.07
2023-03-06T03:53:08.339Z,6.55
2023-03-06T03:55:34.671Z,5.82
2023-03-06T03:58:00.953Z,7.88
2023-03-06T04:00:27.363Z,7.45
2023-03-06T04:02:53.659Z,7.10
2023-03-06T04:05:20.094Z,8.80
2023-03-06T04:07:46.471Z,6.25
2023-03-06T04:10:13.368Z,7.57
2023-03-06T04:12:39.837Z,6.07
2023-03-06T04:15:07.533Z,6.75
2023-03-06T04:17:34.906Z,6.70
2023-03-06T04:20:02.172Z,9.30
2023-03-06T04:22:28.579Z,7.57
2023-03-06T04:24:54.903Z,8.15
2023-03-06T04:27:21.298Z,6.53
2023-03-06T04:29:47.676Z,7.28
2023-03-06T04:32:14.241Z,6.35
2023-03-06T04:34:41.181Z,6.38
2023-03-06T04:37:11.986Z,7.95
2023-03-06T04:42:18.617Z,6.47
2023-03-06T04:44:45.532Z,6.82
2023-03-06T04:47:12.562Z,6.78
2023-03-06T04:49:38.894Z,9.98
2023-03-06T04:52:05.542Z,8.07
2023-03-06T04:54:31.998Z,7.45
2023-03-06T04:56:58.719Z,7.47
2023-03-06T04:59:25.033Z,7.50
2023-03-06T05:01:51.585Z,6.68
2023-03-06T05:04:17.909Z,6.93
2023-03-06T05:06:44.316Z,8.68
2023-03-06T05:09:10.629Z,8.48
2023-03-06T05:11:36.956Z,9.55
2023-03-06T05:14:03.362Z,8.32
2023-03-06T05:16:29.721Z,7.55
2023-03-06T05:18:56.156Z,9.05
2023-03-06T05:21:22.515Z,9.70
2023-03-06T05:23:48.924Z,7.75
2023-03-06T05:26:15.661Z,10.02
2023-03-06T05:28:42.011Z,8.07
2023-03-06T05:31:08.495Z,10.88
2023-03-06T05:33:36.134Z,6.68
2023-03-06T05:36:03.655Z,7.75
2023-03-06T05:38:30.040Z,9.68
2023-03-06T05:40:56.350Z,11.43
2023-03-06T05:43:22.811Z,9.50
2023-03-06T05:45:50.427Z,9.40
2023-03-06T05:48:16.834Z,9.45
2023-03-06T05:50:43.140Z,10.98
2023-03-06T05:53:09.474Z,8.63
2023-03-06T05:55:35.801Z,9.07
2023-03-06T05:58:02.168Z,8.75
2023-03-06T06:00:28.547Z,9.52
2023-03-06T06:02:54.933Z,11.05
2023-03-06T06:05:21.213Z,10.80
2023-03-06T06:07:47.543Z,8.57
2023-03-06T06:10:14.027Z,8.07
2023-03-06T06:12:40.329Z,8.48
2023-03-06T06:15:07.364Z,10.95
2023-03-06T06:17:33.693Z,7.18
2023-03-06T06:20:00.195Z,10.40
2023-03-06T06:22:26.495Z,9.35
2023-03-06T06:24:52.941Z,9.38
2023-03-06T06:27:19.306Z,10.25
2023-03-06T06:29:45.644Z,10.20
2023-03-06T06:32:11.992Z,15.00
2023-03-06T06:34:38.373Z,9.48
2023-03-06T06:37:05.304Z,13.68
2023-03-06T06:39:31.682Z,9.57
2023-03-06T06:42:20.054Z,10.05
2023-03-06T06:44:44.381Z,12.65
2023-03-06T06:47:26.389Z,11.50
2023-03-06T06:49:54.681Z,12.13
2023-03-06T06:52:22.011Z,11.45
2023-03-06T06:54:48.462Z,10.90
2023-03-06T06:57:15.678Z,12.50
2023-03-06T06:59:42.309Z,12.23
2023-03-06T07:02:11.968Z,13.98
2023-03-06T07:04:42.458Z,12.05
2023-03-06T07:07:15.590Z,10.73
2023-03-06T07:09:42.213Z,12.55
2023-03-06T07:12:08.517Z,15.55
2023-03-06T07:14:36.080Z,13.10
2023-03-06T07:17:02.479Z,11.70
2023-03-06T07:19:28.844Z,12.13
2023-03-06T07:21:55.329Z,10.82
2023-03-06T07:24:21.694Z,12.05
2023-03-06T07:26:48.321Z,13.65
2023-03-06T07:29:15.027Z,12.27
2023-03-06T07:31:41.342Z,12.63
2023-03-06T07:34:07.714Z,14.27
2023-03-06T07:36:34.793Z,13.65
2023-03-06T07:39:01.175Z,13.75
2023-03-06T07:41:27.605Z,11.25
2023-03-06T07:43:53.943Z,13.52
2023-03-06T07:46:20.365Z,11.48
2023-03-06T07:48:46.765Z,12.52
2023-03-06T07:51:18.976Z,11.35
2023-03-06T07:53:45.599Z,11.77
2023-03-06T07:56:12.575Z,12.43
2023-03-06T07:58:41.798Z,11.48
2023-03-06T08:01:16.704Z,11.48
2023-03-06T08:03:43.362Z,10.75
2023-03-06T08:09:08.200Z,12.45
2023-03-06T08:11:34.578Z,14.32
2023-03-06T08:14:00.993Z,13.18
2023-03-06T08:16:29.790Z,15.40
2023-03-06T08:18:57.580Z,13.60
2023-03-06T08:21:26.733Z,14.02
2023-03-06T08:23:53.841Z,11.05
2023-03-06T08:26:29.232Z,13.50
2023-03-06T08:28:57.600Z,13.40
2023-03-06T08:31:44.675Z,12.43
2023-03-06T08:34:14.047Z,14.32
2023-03-06T08:36:41.072Z,14.90
2023-03-06T08:39:08.400Z,11.63
2023-03-06T08:41:36.050Z,12.25
2023-03-06T08:44:03.250Z,13.15
2023-03-06T08:46:30.822Z,12.70
2023-03-06T08:48:57.432Z,14.00
2023-03-06T08:51:24.832Z,12.15
2023-03-06T08:53:52.064Z,11.90
2023-03-06T08:56:25.057Z,16.02
2023-03-06T08:58:52.428Z,11.85
2023-03-06T09:01:21.711Z,12.50
2023-03-06T09:03:48.508Z,11.55
2023-03-06T09:06:15.478Z,12.27
2023-03-06T09:08:43.888Z,14.68
2023-03-06T09:11:11.945Z,15.00
2023-03-06T09:13:38.759Z,14.35
2023-03-06T09:16:05.413Z,13.95
2023-03-06T09:18:31.850Z,11.38
2023-03-06T09:20:58.205Z,15.77
2023-03-06T09:23:24.564Z,12.75
2023-03-06T09:25:55.416Z,14.02
2023-03-06T09:28:22.375Z,13.80
2023-03-06T09:30:48.753Z,13.52
2023-03-06T09:33:15.563Z,14.20
2023-03-06T09:35:49.212Z,13.38
2023-03-06T09:38:15.625Z,12.20
2023-03-06T09:40:44.940Z,13.93
2023-03-06T09:43:20.198Z,12.82
2023-03-06T09:45:46.727Z,11.70
2023-03-06T09:48:15.466Z,15.00
2023-03-06T09:50:50.533Z,11.48
2023-03-06T09:53:41.225Z,17.25
2023-03-06T09:56:19.150Z,12.48
2023-03-06T09:58:52.113Z,20.05
2023-03-06T10:01:35.601Z,13.02
2023-03-06T10:04:20.476Z,12.02
2023-03-06T10:06:49.474Z,12.02
2023-03-06T10:09:24.909Z,12.93
2023-03-06T10:11:56.862Z,11.82
2023-03-06T10:14:37.675Z,14.45
2023-03-06T10:17:05.439Z,16.38
2023-03-06T10:19:35.007Z,13.25
2023-03-06T10:22:14.486Z,12.40
2023-03-06T10:25:13.369Z,15.13
2023-03-06T10:27:50.180Z,12.48
2023-03-06T10:30:28.946Z,12.00
2023-03-06T10:33:08.013Z,10.30
2023-03-06T10:35:44.235Z,10.82
2023-03-06T10:38:23.295Z,11.55
2023-03-06T10:41:06.007Z,10.32
2023-03-06T10:43:36.127Z,14.90
2023-03-06T10:46:02.858Z,13.48
2023-03-06T10:48:30.864Z,14.70
2023-03-06T10:51:19.499Z,13.38
2023-03-06T10:53:56.067Z,13.90
2023-03-06T10:56:40.961Z,13.82
2023-03-06T10:59:14.699Z,11.90
2023-03-06T11:01:49.385Z,11.60
2023-03-06T11:04:21.119Z,12.05
2023-03-06T11:06:48.169Z,11.88
2023-03-06T11:09:25.315Z,14.32
2023-03-06T11:11:52.089Z,13.15
2023-03-06T11:14:22.957Z,11.88
2023-03-06T11:16:54.294Z,12.70
2023-03-06T11:19:26.487Z,12.38
2023-03-06T11:22:02.724Z,11.77
2023-03-06T11:24:37.874Z,13.85
2023-03-06T11:27:34.379Z,11.68
2023-03-06T11:30:15.029Z,15.23
2023-03-06T11:32:53.965Z,12.30
2023-03-06T11:35:24.412Z,11.55
2023-03-06T11:38:00.135Z,11.95
2023-03-06T11:40:42.644Z,14.10
2023-03-06T11:43:50.841Z,18.73
2023-03-06T11:46:24.644Z,13.90
2023-03-06T11:49:22.554Z,14.63
2023-03-06T11:51:54.675Z,15.52
2023-03-06T11:54:21.221Z,14.98
2023-03-06T11:56:58.324Z,12.88
2023-03-06T11:59:51.007Z,13.73
2023-03-06T12:02:55.890Z,15.65
2023-03-06T12:05:31.454Z,15.95
2023-03-06T12:08:22.757Z,14.70
2023-03-06T12:10:54.227Z,14.68
2023-03-06T12:13:41.130Z,13.23
2023-03-06T12:16:30.059Z,13.05
2023-03-06T12:19:12.426Z,11.50
2023-03-06T12:22:03.861Z,13.60
2023-03-06T12:24:53.802Z,14.07
2023-03-06T12:27:31.487Z,15.02
2023-03-06T12:30:10.682Z,12.45
2023-03-06T12:32:56.294Z,13.75
2023-03-06T12:35:43.809Z,11.70
2023-03-06T12:38:36.298Z,13.82
2023-03-06T12:41:26.884Z,12.38
2023-03-06T12:44:15.248Z,14.77
2023-03-06T12:46:46.374Z,10.95
2023-03-06T12:49:31.372Z,13.85
2023-03-06T12:51:59.974Z,12.25
2023-03-06T12:54:30.493Z,11.88
2023-03-06T12:56:59.175Z,14.10
2023-03-06T12:59:37.903Z,12.55
2023-03-06T13:02:13.892Z,14.07
2023-03-06T13:04:47.957Z,16.15
2023-03-06T13:07:29.606Z,12.80
2023-03-06T13:10:02.061Z,11.57
2023-03-06T13:12:49.808Z,11.98
2023-03-06T13:15:32.488Z,13.50
2023-03-06T13:17:59.162Z,11.32
2023-03-06T13:20:35.264Z,11.52
2023-03-06T13:23:29.499Z,13.70
2023-03-06T13:26:10.555Z,15.02
2023-03-06T13:28:51.024Z,10.00
2023-03-06T13:31:48.343Z,12.63
2023-03-06T13:34:38.720Z,14.80
2023-03-06T13:37:13.903Z,12.43
2023-03-06T13:40:09.817Z,10.18
2023-03-06T13:42:56.408Z,10.90
2023-03-06T13:45:27.112Z,11.52
2023-03-06T13:48:24.606Z,11.27
2023-03-06T13:50:44.784Z,11.57
2023-03-06T13:53:37.432Z,10.70
2023-03-06T13:56:29.961Z,13.13
2023-03-06T13:59:15.517Z,11.77
2023-03-06T14:01:47.900Z,10.43
2023-03-06T14:04:30.561Z,11.55
2023-03-06T14:07:23.753Z,12.48
2023-03-06T14:09:59.207Z,13.82
2023-03-06T14:14:57.736Z,10.70
2023-03-06T14:17:29.090Z,12.65
2023-03-06T14:20:00.676Z,12.98
2023-03-06T14:22:26.969Z,12.35
2023-03-06T14:25:00.936Z,12.48
2023-03-06T14:27:49.188Z,10.10
2023-03-06T14:30:23.127Z,13.10
2023-03-06T14:35:30.658Z,13.55
2023-03-06T14:38:00.954Z,11.80
2023-03-06T14:40:42.542Z,12.55
2023-03-06T14:43:23.258Z,16.15
2023-03-06T14:46:01.616Z,11.82
2023-03-06T14:48:40.038Z,14.30
2023-03-06T14:51:14.309Z,14.30
2023-03-06T14:53:40.876Z,11.70
2023-03-06T14:56:07.637Z,10.88
2023-03-06T14:58:48.249Z,10.10
2023-03-06T15:01:15.536Z,9.57
2023-03-06T15:03:54.916Z,12.82
2023-03-06T15:06:25.163Z,10.77
2023-03-06T15:09:24.335Z,11.77
2023-03-06T15:12:02.900Z,11.05
2023-03-06T15:14:40.896Z,12.13
2023-03-06T15:17:19.363Z,13.60
2023-03-06T15:19:47.677Z,13.77
2023-03-06T15:22:37.698Z,14.48
2023-03-06T15:25:16.017Z,12.30
2023-03-06T15:27:49.343Z,11.25
2023-03-06T15:30:28.029Z,10.20
2023-03-06T15:33:18.805Z,11.63
2023-03-06T15:36:19.524Z,12.48
2023-03-06T15:38:47.180Z,13.23
2023-03-06T15:41:29.426Z,10.90
2023-03-06T15:43:58.027Z,11.27
2023-03-06T15:46:24.404Z,13.52
2023-03-06T15:49:00.219Z,10.55
2023-03-06T15:51:27.439Z,9.25
2023-03-06T15:53:59.794Z,9.50
2023-03-06T15:56:35.035Z,9.15
2023-03-06T15:59:02.127Z,13.63
2023-03-06T16:01:28.695Z,12.40
2023-03-06T16:03:55.082Z,8.73
2023-03-06T16:06:27.088Z,10.95
2023-03-06T16:08:53.525Z,10.55
2023-03-06T16:11:38.483Z,10.38
2023-03-06T16:14:05.132Z,9.43
2023-03-06T16:16:37.532Z,11.15
2023-03-06T16:19:09.466Z,10.15
2023-03-06T16:21:38.280Z,12.88
2023-03-06T16:24:04.743Z,8.88
2023-03-06T16:26:34.027Z,9.32
2023-03-06T16:29:00.878Z,9.32
2023-03-06T16:31:27.669Z,9.02
2023-03-06T16:33:54.021Z,10.68
2023-03-06T16:36:23.430Z,8.85
2023-03-06T16:38:50.671Z,9.93
2023-03-06T16:41:18.319Z,10.32
2023-03-06T16:43:44.681Z,8.90
2023-03-06T16:46:16.502Z,8.40
2023-03-06T16:48:43.310Z,8.48
2023-03-06T16:51:14.693Z,8.27
2023-03-06T16:53:41.071Z,9.27
2023-03-06T16:56:13.484Z,7.97
2023-03-06T16:58:40.327Z,10.23
2023-03-06T17:01:07.250Z,10.02
2023-03-06T17:03:34.405Z,9.00
2023-03-06T17:06:01.115Z,8.02
2023-03-06T17:08:27.604Z,8.55
2023-03-06T17:10:53.996Z,9.15
2023-03-06T17:13:20.399Z,9.77
2023-03-06T17:15:58.819Z,9.77
2023-03-06T17:18:27.184Z,11.98
2023-03-06T17:20:54.314Z,11.05
2023-03-06T17:23:25.906Z,10.77
2023-03-06T17:26:18.003Z,15.10
2023-03-06T17:28:45.604Z,14.10
2023-03-06T17:31:18.085Z,11.75
2023-03-06T17:33:45.313Z,10.75
2023-03-06T17:36:14.270Z,10.95
2023-03-06T17:38:41.648Z,13.48
2023-03-06T17:41:09.462Z,14.35
2023-03-06T17:43:37.254Z,14.13
2023-03-06T17:46:12.178Z,10.95
2023-03-06T17:48:39.464Z,10.75
2023-03-06T17:51:06.588Z,10.60
2023-03-06T17:53:33.160Z,12.80
2023-03-06T17:55:59.615Z,14.23
2023-03-06T17:58:27.037Z,11.13
2023-03-06T18:00:53.794Z,13.50
2023-03-06T18:03:20.787Z,13.60
2023-03-06T18:05:47.320Z,11.75
2023-03-06T18:08:13.929Z,13.45
2023-03-06T18:10:41.556Z,10.05
2023-03-06T18:13:10.408Z,12.48
2023-03-06T18:15:40.678Z,16.08
2023-03-06T18:18:08.025Z,12.77
2023-03-06T18:20:34.885Z,13.23
2023-03-06T18:23:03.465Z,11.85
2023-03-06T18:25:32.579Z,12.45
2023-03-06T18:27:59.234Z,12.98
2023-03-06T18:30:26.394Z,12.70
2023-03-06T18:32:53.222Z,15.63
2023-03-06T18:35:20.016Z,13.30
2023-03-06T18:37:46.482Z,15.57
2023-03-06T18:40:13.350Z,16.10
2023-03-06T18:42:39.686Z,15.45
2023-03-06T18:45:06.930Z,11.90
2023-03-06T18:47:33.617Z,14.85
2023-03-06T18:49:59.904Z,15.55
2023-03-06T18:52:26.195Z,14.30
2023-03-06T18:54:53.377Z,14.15
2023-03-06T18:57:19.709Z,14.25
2023-03-06T18:59:46.089Z,14.77
2023-03-06T19:02:12.882Z,16.02
2023-03-06T19:04:39.623Z,14.55
2023-03-06T19:07:06.359Z,15.63
2023-03-06T19:09:32.774Z,16.75
2023-03-06T19:11:59.790Z,16.60
2023-03-06T19:14:28.223Z,18.77
2023-03-06T19:16:55.086Z,15.50
2023-03-06T19:19:26.077Z,17.17
2023-03-06T19:21:53.393Z,15.60
2023-03-06T19:24:19.883Z,17.70
2023-03-06T19:26:46.279Z,17.80
2023-03-06T19:29:12.696Z,15.38
2023-03-06T19:31:39.446Z,16.95
2023-03-06T19:34:05.833Z,17.60
2023-03-06T19:36:34.086Z,16.85
2023-03-06T19:39:03.127Z,15.13
2023-03-06T19:41:29.966Z,19.65
2023-03-06T19:43:58.805Z,18.17
2023-03-06T19:46:26.276Z,19.00
2023-03-06T19:49:11.585Z,18.65
2023-03-06T19:51:38.182Z,17.15
2023-03-06T19:54:04.602Z,20.48
2023-03-06T19:56:31.829Z,18.67
2023-03-06T19:58:58.239Z,19.30
2023-03-06T20:01:27.089Z,21.88
2023-03-06T20:03:58.712Z,20.75
2023-03-06T20:06:28.468Z,21.02
2023-03-06T20:08:55.453Z,17.35
2023-03-06T20:11:24.045Z,26.65
2023-03-06T20:13:50.761Z,21.20
2023-03-06T20:16:17.811Z,19.20
2023-03-06T20:18:45.498Z,16.38
2023-03-06T20:21:14.157Z,20.33
2023-03-06T20:23:40.762Z,18.17
2023-03-06T20:26:09.800Z,16.98
2023-03-06T20:28:39.132Z,20.95
2023-03-06T20:31:11.346Z,18.42
2023-03-06T20:33:37.802Z,20.08
2023-03-06T20:36:04.588Z,18.15
2023-03-06T20:38:31.014Z,17.95
2023-03-06T20:40:58.359Z,16.83
2023-03-06T20:43:24.708Z,19.20
2023-03-06T20:45:59.009Z,19.50
2023-03-06T20:48:25.425Z,19.60
2023-03-06T20:51:02.855Z,19.58
2023-03-06T20:53:29.657Z,18.15
2023-03-06T20:55:56.450Z,18.67
2023-03-06T20:58:25.770Z,20.23
2023-03-06T21:00:52.542Z,18.25
2023-03-06T21:03:18.870Z,21.52
2023-03-06T21:05:48.663Z,20.10
2023-03-06T21:08:16.072Z,25.48
2023-03-06T21:10:44.796Z,20.10
2023-03-06T21:13:11.458Z,22.75
2023-03-06T21:15:39.366Z,22.45
2023-03-06T21:18:06.058Z,18.65
2023-03-06T21:20:33.472Z,20.67
2023-03-06T21:23:01.601Z,24.75
2023-03-06T21:25:29.033Z,20.98
2023-03-06T21:27:55.809Z,18.05
2023-03-06T21:30:22.209Z,22.33
2023-03-06T21:32:50.707Z,22.17
2023-03-06T21:35:17.400Z,20.02
2023-03-06T21:37:43.731Z,23.63
2023-03-06T21:40:10.704Z,21.05
2023-03-06T21:42:37.030Z,20.73
2023-03-06T21:45:05.088Z,23.02
2023-03-06T21:47:37.529Z,21.38
2023-03-06T21:50:06.223Z,21.60
2023-03-06T21:52:32.658Z,22.45
2023-03-06T21:54:59.132Z,24.75
2023-03-06T21:57:25.653Z,21.90
2023-03-06T21:59:52.040Z,20.98
2023-03-06T22:02:18.693Z,21.25
2023-03-06T22:04:50.026Z,18.95
2023-03-06T22:07:16.916Z,21.05
2023-03-06T22:09:43.210Z,21.80
2023-03-06T22:12:09.730Z,22.48
2023-03-06T22:14:36.109Z,23.35
2023-03-06T22:17:02.854Z,25.17
2023-03-06T22:19:29.729Z,19.70
2023-03-06T22:21:56.171Z,22.08
2023-03-06T22:24:22.613Z,22.67
2023-03-06T22:26:48.918Z,22.02
2023-03-06T22:29:15.327Z,23.98
2023-03-06T22:31:41.709Z,23.33
2023-03-06T22:34:08.096Z,19.88
2023-03-06T22:36:34.525Z,21.95
2023-03-06T22:39:02.914Z,23.38
2023-03-06T22:41:29.380Z,20.70
2023-03-06T22:43:57.162Z,20.58
2023-03-06T22:46:23.694Z,22.67
2023-03-06T22:48:50.066Z,22.08
2023-03-06T22:51:19.210Z,25.42
2023-03-06T22:53:46.908Z,23.67
2023-03-06T22:56:15.537Z,26.08
2023-03-06T22:58:44.524Z,22.73
2023-03-06T23:01:13.486Z,26.77
2023-03-06T23:03:41.818Z,24.77
2023-03-06T23:06:10.589Z,24.35
2023-03-06T23:08:37.424Z,25.33
2023-03-06T23:11:12.282Z,26.70
2023-03-06T23:13:39.306Z,23.60
2023-03-06T23:16:07.516Z,26.73
2023-03-06T23:18:36.939Z,27.13
2023-03-06T23:21:15.082Z,25.25
2023-03-06T23:23:44.072Z,24.65
2023-03-06T23:26:13.301Z,28.67
2023-03-06T23:28:40.764Z,25.30
2023-03-06T23:31:17.633Z,25.95
2023-03-06T23:33:44.397Z,26.98
2023-03-06T23:36:13.468Z,26.02
2023-03-06T23:38:40.779Z,29.35
2023-03-06T23:41:10.390Z,23.98
2023-03-06T23:43:37.079Z,28.77
2023-03-06T23:46:04.863Z,25.50
2023-03-06T23:48:31.429Z,27.70
2023-03-06T23:50:58.101Z,28.77
2023-03-06T23:53:24.620Z,28.35
2023-03-06T23:55:51.209Z,28.30
2023-03-06T23:58:18.873Z,24.48
